Franklin, Illinois
Current Conditions -  °F | °C
As of 8:15 PM on Saturday 25 Oct 2014 (Local Time) from KIJX Reporting Station
Clear Clear  
Wind Chill: 58°   Ceiling: Unl
Heat Index: 58°   Visibility: 7mi
Dew Point: 46°   Wind: 5mph
Humidity: 65%   Direction: 330°NNW
Pressure: 30.02"   Gusts: NA
Location:  39.62°N, 90.04°W
Report Text: KIJX 260115Z AUTO 33004KT 7SM CLR 15/08 A3002 RMK AO2 T01460080
Loading
Personal Weather Stations






























Interactive Weather Map
Tropical Storm Tracking
New forecast layout! Learn more

10-Day Weather Forecast

Advertisements
Track Severe Weather on mobile